Time;durP1;ratioP1;P1;durP2;ratioP2;P2;SDS_P1;SDS_P2;PMS_P1;PMS_P2;Temp;Humidity;BMP_temperature;BMP_pressure;BME280_temperature;BME280_humidity;BME280_pressure;Samples;Min_cycle;Max_cycle;Signal;HPM_P1;HPM_P2
2023/04/21 00:02:00;;;;;;;29.77;14.40;;;7.00;1.00;;;;;;5054387;28;20177;-51
2023/04/21 00:04:26;;;;;;;25.03;14.03;;;7.00;1.00;;;;;;5053978;28;20186;-50
2023/04/21 00:06:52;;;;;;;23.73;13.87;;;7.00;1.00;;;;;;5054141;28;20540;-51
2023/04/21 00:09:17;;;;;;;24.20;14.10;;;7.00;1.00;;;;;;5054151;28;20540;-51
2023/04/21 00:11:43;;;;;;;26.90;14.60;;;7.00;1.00;;;;;;5054072;28;20409;-51
2023/04/21 00:14:09;;;;;;;26.57;15.70;;;7.00;1.00;;;;;;5053900;28;20178;-51
2023/04/21 00:16:35;;;;;;;33.00;13.20;;;7.00;1.00;;;;;;5053376;28;20627;-51
2023/04/21 00:19:01;;;;;;;22.37;13.00;;;7.00;1.00;;;;;;5053813;28;20264;-52
2023/04/21 00:21:27;;;;;;;26.43;13.30;;;7.00;1.00;;;;;;5053877;28;20188;-51
2023/04/21 00:23:52;;;;;;;34.20;13.87;;;6.90;1.00;;;;;;5054137;28;20511;-51
2023/04/21 00:26:19;;;;;;;28.03;13.80;;;6.90;1.00;;;;;;5053643;28;20633;-51
2023/04/21 00:28:45;;;;;;;30.50;13.40;;;6.90;1.00;;;;;;5054076;28;20217;-51
2023/04/21 00:31:11;;;;;;;26.87;13.90;;;6.90;1.00;;;;;;5053616;28;20454;-51
2023/04/21 00:33:36;;;;;;;23.60;14.30;;;6.90;1.00;;;;;;5053369;28;20282;-51
2023/04/21 00:36:02;;;;;;;23.30;12.67;;;6.90;1.00;;;;;;5053425;28;20182;-51
2023/04/21 00:38:27;;;;;;;21.80;13.03;;;6.90;1.00;;;;;;5053210;28;20175;-51
2023/04/21 00:40:54;;;;;;;26.40;14.57;;;6.90;1.00;;;;;;5053765;28;20186;-52
2023/04/21 00:43:20;;;;;;;21.33;12.60;;;6.90;1.00;;;;;;5053761;28;20197;-51
2023/04/21 00:45:46;;;;;;;26.50;13.20;;;6.90;1.00;;;;;;5053539;28;20910;-51
2023/04/21 00:48:11;;;;;;;28.77;14.13;;;6.90;1.00;;;;;;5052946;28;20241;-51
2023/04/21 00:50:37;;;;;;;25.90;13.97;;;6.90;1.00;;;;;;5053596;28;20427;-51
2023/04/21 00:53:03;;;;;;;23.03;14.00;;;6.80;1.00;;;;;;5053550;28;20178;-51
2023/04/21 00:55:30;;;;;;;31.90;13.83;;;6.80;1.00;;;;;;5053206;28;20273;-51
2023/04/21 00:57:55;;;;;;;23.73;14.50;;;6.80;1.00;;;;;;5053261;28;20639;-51
2023/04/21 01:00:21;;;;;;;29.13;13.47;;;6.70;1.00;;;;;;5053117;28;20522;-52
2023/04/21 01:02:47;;;;;;;27.33;14.20;;;6.70;1.00;;;;;;5053475;28;20183;-51
2023/04/21 01:05:13;;;;;;;23.50;13.97;;;6.80;99.90;;;;;;5053172;28;20627;-51
2023/04/21 01:07:39;;;;;;;25.20;13.63;;;6.80;99.90;;;;;;5053434;28;20522;-51
2023/04/21 01:10:05;;;;;;;28.40;13.77;;;6.80;99.90;;;;;;5053176;28;20419;-51
2023/04/21 01:12:31;;;;;;;22.10;13.73;;;6.80;1.00;;;;;;5053147;28;20203;-51
2023/04/21 01:14:56;;;;;;;28.77;15.50;;;6.80;13.10;;;;;;5053523;28;20842;-51
2023/04/21 01:17:22;;;;;;;23.27;14.83;;;6.80;1.00;;;;;;5053230;28;20209;-51
2023/04/21 01:19:49;;;;;;;22.67;13.30;;;6.80;1.00;;;;;;5052831;28;20248;-51
2023/04/21 01:22:15;;;;;;;23.97;13.40;;;6.80;1.00;;;;;;5053500;28;20259;-51
2023/04/21 01:24:46;;;;;;;27.10;14.60;;;6.80;1.00;;;;;;5053524;28;20408;-51
2023/04/21 01:27:17;;;;;;;24.60;14.20;;;6.70;1.00;;;;;;5053028;28;20425;-51
2023/04/21 01:29:45;;;;;;;26.13;13.87;;;6.80;1.00;;;;;;5056684;28;20400;-51
2023/04/21 01:32:15;;;;;;;20.17;13.90;;;6.80;1.00;;;;;;5057335;28;20504;-51
2023/04/21 01:34:42;;;;;;;24.50;13.30;;;6.80;1.00;;;;;;5056839;28;20417;-51
2023/04/21 01:37:13;;;;;;;24.10;13.10;;;6.80;1.00;;;;;;5056925;28;20412;-51
2023/04/21 01:39:44;;;;;;;24.40;13.17;;;6.80;1.00;;;;;;5056587;28;20457;-51
2023/04/21 01:42:10;;;;;;;22.73;12.87;;;6.80;1.00;;;;;;5057107;28;20425;-51
2023/04/21 01:44:37;;;;;;;23.53;14.00;;;6.80;1.00;;;;;;5056740;28;20421;-51
2023/04/21 01:47:03;;;;;;;20.63;12.80;;;6.80;1.00;;;;;;5056408;28;20415;-51
2023/04/21 01:49:29;;;;;;;21.50;13.30;;;6.80;1.00;;;;;;5056640;28;20389;-51
2023/04/21 01:51:54;;;;;;;21.60;13.77;;;6.80;1.00;;;;;;5056456;28;20909;-51
2023/04/21 01:54:20;;;;;;;25.03;13.40;;;6.70;1.00;;;;;;5056729;28;20527;-51
2023/04/21 01:56:46;;;;;;;26.23;13.00;;;6.70;1.00;;;;;;5056965;28;20201;-51
2023/04/21 01:59:12;;;;;;;22.93;12.93;;;6.70;1.00;;;;;;5056231;28;20710;-51
2023/04/21 02:01:37;;;;;;;22.83;14.10;;;6.80;1.00;;;;;;5056658;28;20276;-51
2023/04/21 02:04:04;;;;;;;27.07;15.33;;;6.80;1.00;;;;;;5056526;28;20179;-52
2023/04/21 02:06:32;;;;;;;19.73;13.00;;;6.70;1.00;;;;;;5056406;28;20171;-51
2023/04/21 02:08:58;;;;;;;19.73;12.87;;;6.60;1.00;;;;;;5056656;28;20428;-51
2023/04/21 02:11:25;;;;;;;22.27;13.00;;;6.60;18.60;;;;;;5055944;28;21020;-51
2023/04/21 02:13:54;;;;;;;23.57;13.90;;;6.70;99.90;;;;;;5056361;28;20179;-51
2023/04/21 02:16:24;;;;;;;23.37;13.30;;;6.70;43.30;;;;;;5056402;28;20771;-51
2023/04/21 02:18:55;;;;;;;20.70;12.93;;;6.70;43.90;;;;;;5056237;28;20468;-51
2023/04/21 02:21:25;;;;;;;23.80;13.40;;;6.60;1.00;;;;;;5056364;28;20496;-50
2023/04/21 02:23:51;;;;;;;25.73;13.30;;;6.50;1.00;;;;;;5056137;28;20928;-51
2023/04/21 02:26:17;;;;;;;25.33;13.53;;;6.50;99.90;;;;;;5056131;28;20488;-51
2023/04/21 02:28:43;;;;;;;22.93;12.50;;;6.60;99.90;;;;;;5055592;28;20462;-51
2023/04/21 02:31:08;;;;;;;22.20;13.50;;;6.50;99.90;;;;;;5056357;28;20415;-51
2023/04/21 02:33:34;;;;;;;22.67;13.00;;;6.50;99.90;;;;;;5056153;28;20183;-51
2023/04/21 02:36:00;;;;;;;22.50;13.77;;;6.50;99.90;;;;;;5055763;28;20190;-51
2023/04/21 02:38:25;;;;;;;23.20;12.83;;;6.50;99.90;;;;;;5055504;28;20178;-51
2023/04/21 02:40:51;;;;;;;20.73;12.90;;;6.50;99.90;;;;;;5055210;28;20195;-52
2023/04/21 02:43:17;;;;;;;21.90;12.80;;;6.40;99.90;;;;;;5055830;28;20187;-51
2023/04/21 02:45:42;;;;;;;23.40;12.07;;;6.40;1.00;;;;;;5055365;28;20538;-52
2023/04/21 02:48:08;;;;;;;21.70;13.70;;;6.40;99.90;;;;;;5055453;28;20234;-51
2023/04/21 02:50:34;;;;;;;28.40;12.87;;;6.40;99.90;;;;;;5055333;28;20222;-51
2023/04/21 02:53:00;;;;;;;24.13;12.90;;;6.40;1.00;;;;;;5055798;28;20179;-52
2023/04/21 02:55:25;;;;;;;21.53;13.60;;;6.40;1.00;;;;;;5055131;28;20536;-51
2023/04/21 02:57:51;;;;;;;23.67;12.67;;;6.30;99.90;;;;;;5055442;28;20190;-51
2023/04/21 03:00:17;;;;;;;26.27;14.03;;;6.30;1.00;;;;;;5055252;28;20203;-51
2023/04/21 03:02:43;;;;;;;24.83;13.07;;;6.30;1.00;;;;;;5055244;28;20185;-52
2023/04/21 03:05:09;;;;;;;21.50;13.40;;;6.30;93.00;;;;;;5055357;28;20269;-51
2023/04/21 03:07:35;;;;;;;22.10;14.47;;;6.20;55.60;;;;;;5055418;28;20417;-51
2023/04/21 03:10:01;;;;;;;28.10;14.97;;;6.20;99.90;;;;;;5055237;28;20409;-51
2023/04/21 03:12:26;;;;;;;27.20;12.60;;;6.30;1.00;;;;;;5055425;28;20483;-51
2023/04/21 03:14:52;;;;;;;20.97;14.10;;;6.30;99.90;;;;;;5055148;28;20510;-51
2023/04/21 03:17:17;;;;;;;22.23;12.97;;;6.40;99.90;;;;;;5054886;28;20221;-52
2023/04/21 03:19:43;;;;;;;20.63;13.60;;;6.40;99.90;;;;;;5054821;28;20213;-51
2023/04/21 03:22:08;;;;;;;24.60;13.00;;;6.40;99.90;;;;;;5054959;28;20190;-51
2023/04/21 03:24:34;;;;;;;22.13;13.07;;;6.40;99.90;;;;;;5054976;28;20183;-51
2023/04/21 03:27:01;;;;;;;22.67;12.63;;;6.30;13.90;;;;;;5054914;28;20182;-51
2023/04/21 03:29:27;;;;;;;20.87;13.40;;;6.30;1.00;;;;;;5055052;28;20542;-51
2023/04/21 03:31:52;;;;;;;17.90;12.70;;;6.30;1.00;;;;;;5054940;28;20520;-51
2023/04/21 03:34:18;;;;;;;21.63;12.20;;;6.20;2.90;;;;;;5054630;28;20565;-51
2023/04/21 03:36:43;;;;;;;28.47;13.50;;;6.20;1.20;;;;;;5054550;28;20219;-51
2023/04/21 03:39:09;;;;;;;20.03;12.30;;;6.20;99.90;;;;;;5054596;28;20285;-52
2023/04/21 03:41:35;;;;;;;26.83;13.50;;;6.30;99.90;;;;;;5054494;28;20179;-51
2023/04/21 03:44:00;;;;;;;25.90;12.70;;;6.30;1.00;;;;;;5054995;28;20244;-51
2023/04/21 03:46:26;;;;;;;28.30;13.57;;;6.30;1.00;;;;;;5054546;28;20215;-53
2023/04/21 03:48:51;;;;;;;21.20;12.97;;;6.30;1.00;;;;;;5054177;28;20234;-51
2023/04/21 03:51:17;;;;;;;25.10;13.83;;;6.30;1.00;;;;;;5053648;28;20187;-51
2023/04/21 03:53:42;;;;;;;22.90;12.60;;;6.20;1.00;;;;;;5054303;28;20178;-51
2023/04/21 03:56:09;;;;;;;22.50;12.20;;;6.20;1.00;;;;;;5054313;28;20247;-51
2023/04/21 03:58:35;;;;;;;25.03;13.77;;;6.20;1.00;;;;;;5054144;28;20197;-51
2023/04/21 04:01:01;;;;;;;19.77;12.57;;;6.30;1.00;;;;;;5054280;28;20471;-51
2023/04/21 04:03:26;;;;;;;24.93;14.20;;;6.20;1.00;;;;;;5054193;28;20855;-51
2023/04/21 04:05:52;;;;;;;19.40;12.77;;;6.20;1.00;;;;;;5053810;28;20189;-53
2023/04/21 04:08:18;;;;;;;21.13;13.20;;;6.20;1.00;;;;;;5054285;28;20277;-51
2023/04/21 04:10:43;;;;;;;27.80;12.80;;;6.20;99.90;;;;;;5053790;28;20205;-51
2023/04/21 04:13:09;;;;;;;21.20;12.83;;;6.20;99.90;;;;;;5053830;28;20270;-51
2023/04/21 04:15:34;;;;;;;22.33;12.40;;;6.10;99.90;;;;;;5054156;28;20186;-51
2023/04/21 04:18:00;;;;;;;25.33;13.57;;;6.10;1.00;;;;;;5054037;28;20171;-51
2023/04/21 04:20:26;;;;;;;20.20;13.50;;;6.10;1.00;;;;;;5053879;28;20214;-51
2023/04/21 04:22:52;;;;;;;22.60;13.10;;;6.10;99.90;;;;;;5053582;28;20266;-52
2023/04/21 04:25:17;;;;;;;27.80;13.33;;;6.10;1.00;;;;;;5053664;28;20528;-51
2023/04/21 04:27:43;;;;;;;25.10;13.13;;;6.10;1.00;;;;;;5054129;28;20179;-51
2023/04/21 04:30:11;;;;;;;23.30;12.47;;;6.10;1.00;;;;;;5053704;28;20241;-51
2023/04/21 04:32:40;;;;;;;24.67;12.80;;;6.10;1.00;;;;;;5053557;28;20417;-51
2023/04/21 04:35:06;;;;;;;23.73;13.10;;;6.20;1.00;;;;;;5052200;28;20914;-51
2023/04/21 04:37:33;;;;;;;19.53;12.70;;;6.20;99.90;;;;;;5052334;28;20426;-51
2023/04/21 04:39:59;;;;;;;26.43;13.50;;;6.20;99.90;;;;;;5052015;28;20468;-51
2023/04/21 04:42:24;;;;;;;21.37;12.87;;;6.20;99.90;;;;;;5052531;28;20417;-51
2023/04/21 04:44:53;;;;;;;17.23;13.03;;;6.20;99.90;;;;;;5052545;28;20182;-51
2023/04/21 04:47:19;;;;;;;22.73;12.47;;;6.30;99.90;;;;;;5052124;28;20229;-51
2023/04/21 04:49:45;;;;;;;25.83;13.77;;;6.20;16.60;;;;;;5052030;28;20425;-51
2023/04/21 04:52:11;;;;;;;17.43;12.50;;;6.20;99.90;;;;;;5052083;28;20185;-51
2023/04/21 04:54:36;;;;;;;20.60;12.40;;;6.20;99.90;;;;;;5052035;28;20759;-52
2023/04/21 04:57:02;;;;;;;22.43;13.63;;;6.30;99.90;;;;;;5052283;28;20209;-51
2023/04/21 04:59:29;;;;;;;21.60;13.00;;;6.40;99.90;;;;;;5052103;28;20210;-52
2023/04/21 05:01:55;;;;;;;25.43;16.50;;;6.60;99.90;;;;;;5052312;28;20183;-51
2023/04/21 05:04:20;;;;;;;23.90;14.30;;;6.60;1.00;;;;;;5057747;28;20940;-51
2023/04/21 05:06:46;;;;;;;19.40;13.17;;;6.70;1.00;;;;;;5058528;28;20186;-51
2023/04/21 05:09:12;;;;;;;21.87;13.33;;;6.80;1.00;;;;;;5058632;28;20182;-51
2023/04/21 05:11:37;;;;;;;29.97;13.87;;;7.00;99.90;;;;;;5058708;28;20539;-51
2023/04/21 05:14:03;;;;;;;17.40;12.50;;;7.10;99.90;;;;;;5058506;28;20189;-51
2023/04/21 05:16:28;;;;;;;19.23;12.80;;;7.10;30.10;;;;;;5058502;28;20214;-52
2023/04/21 05:18:54;;;;;;;17.10;12.20;;;7.20;1.00;;;;;;5058748;28;20206;-51
2023/04/21 05:21:26;;;;;;;18.60;12.20;;;7.30;1.00;;;;;;5058633;28;20241;-51
2023/04/21 05:23:55;;;;;;;18.00;12.40;;;7.40;1.00;;;;;;5058762;28;20213;-51
2023/04/21 05:26:21;;;;;;;18.50;12.20;;;7.50;99.90;;;;;;5058532;28;20479;-51
2023/04/21 05:28:48;;;;;;;17.20;12.40;;;7.60;99.90;;;;;;5058131;28;20435;-50
2023/04/21 05:31:13;;;;;;;26.93;13.33;;;7.70;99.90;;;;;;5058380;28;20421;-51
2023/04/21 05:33:39;;;;;;;22.50;13.10;;;7.80;99.90;;;;;;5058181;28;20432;-51
2023/04/21 05:36:08;;;;;;;21.13;13.20;;;7.90;99.90;;;;;;5058645;28;20224;-51
2023/04/21 05:38:34;;;;;;;19.63;12.80;;;8.00;99.90;;;;;;5058621;28;20178;-51
2023/04/21 05:41:00;;;;;;;25.03;12.40;;;8.10;99.90;;;;;;5058378;28;20807;-52
2023/04/21 05:43:26;;;;;;;20.40;12.63;;;8.20;99.90;;;;;;5058631;28;20419;-51
2023/04/21 05:45:52;;;;;;;19.47;12.70;;;8.30;98.20;;;;;;5058799;28;20440;-52
2023/04/21 05:48:17;;;;;;;22.13;12.23;;;8.50;71.40;;;;;;5058146;28;20732;-51
2023/04/21 05:50:43;;;;;;;20.30;12.17;;;8.70;41.50;;;;;;5058102;28;20186;-51
2023/04/21 05:53:08;;;;;;;18.23;11.70;;;8.90;17.30;;;;;;5057882;28;20533;-51
2023/04/21 05:55:35;;;;;;;18.50;12.03;;;9.20;5.90;;;;;;5058079;28;20229;-52
2023/04/21 05:58:01;;;;;;;18.13;13.20;;;9.40;1.00;;;;;;5073443;28;20210;-51
2023/04/21 06:00:26;;;;;;;21.53;12.60;;;9.60;1.00;;;;;;5058053;28;20491;-52
2023/04/21 06:02:52;;;;;;;20.87;12.03;;;9.80;1.00;;;;;;5058579;28;20536;-51
2023/04/21 06:05:18;;;;;;;19.70;11.43;;;10.00;1.00;;;;;;5058109;28;20183;-54
2023/04/21 06:07:43;;;;;;;17.95;11.02;;;10.30;1.00;;;;;;5056606;28;20404;-50
2023/04/21 06:10:11;;;;;;;19.60;12.10;;;10.50;1.00;;;;;;5058329;28;20523;-51
2023/04/21 06:12:37;;;;;;;21.03;12.50;;;10.70;1.00;;;;;;5058688;28;20189;-51
2023/04/21 06:15:03;;;;;;;21.30;11.70;;;10.80;1.00;;;;;;5055429;28;20886;-51
2023/04/21 06:17:29;;;;;;;19.87;11.70;;;11.00;1.00;;;;;;5055373;28;20206;-52
2023/04/21 06:19:54;;;;;;;21.47;11.47;;;11.20;1.00;;;;;;5055286;28;20492;-51
2023/04/21 06:22:21;;;;;;;16.83;11.90;;;11.30;1.00;;;;;;5054889;28;20186;-51
2023/04/21 06:24:47;;;;;;;15.97;11.30;;;11.40;1.00;;;;;;5055025;28;20189;-51
2023/04/21 06:27:13;;;;;;;15.23;11.27;;;11.60;1.00;;;;;;5055160;28;20551;-51
2023/04/21 06:29:38;;;;;;;17.63;11.63;;;11.70;1.00;;;;;;5054986;28;20217;-51
2023/04/21 06:32:04;;;;;;;17.60;10.87;;;11.90;1.00;;;;;;5055080;28;20413;-51
2023/04/21 06:34:30;;;;;;;16.17;10.67;;;12.00;1.00;;;;;;5054795;28;20252;-51
2023/04/21 06:36:55;;;;;;;17.30;11.70;;;12.10;1.00;;;;;;5055018;28;20179;-50
2023/04/21 06:39:21;;;;;;;19.17;11.43;;;12.30;1.00;;;;;;5054537;28;20209;-50
2023/04/21 06:41:46;;;;;;;15.77;11.10;;;12.40;1.00;;;;;;5054580;28;20191;-51
2023/04/21 06:44:12;;;;;;;19.40;10.67;;;12.50;1.00;;;;;;5054483;28;20186;-50
2023/04/21 06:46:40;;;;;;;19.87;10.83;;;12.70;1.00;;;;;;5054531;28;20643;-51
2023/04/21 06:49:09;;;;;;;20.57;10.57;;;12.90;1.00;;;;;;5054468;28;20477;-51
2023/04/21 06:51:36;;;;;;;19.23;11.40;;;13.10;1.00;;;;;;5054687;28;20496;-51
2023/04/21 06:54:02;;;;;;;17.37;10.67;;;13.30;1.00;;;;;;5054575;28;20412;-51
2023/04/21 06:56:28;;;;;;;20.70;10.80;;;13.50;1.00;;;;;;5054734;28;20414;-51
2023/04/21 06:58:53;;;;;;;14.10;10.73;;;13.80;1.00;;;;;;5054714;28;20241;-50
2023/04/21 07:01:19;;;;;;;15.70;10.07;;;13.80;1.00;;;;;;5054522;28;20426;-51
2023/04/21 07:03:45;;;;;;;18.27;10.93;;;13.80;1.00;;;;;;5054329;28;20188;-51
2023/04/21 07:06:11;;;;;;;15.20;11.13;;;14.00;1.00;;;;;;5054508;28;20512;-51
2023/04/21 07:08:37;;;;;;;18.37;11.20;;;13.90;1.00;;;;;;5054385;28;20418;-50
2023/04/21 07:11:02;;;;;;;19.73;10.87;;;14.10;1.00;;;;;;5054120;28;20194;-51
2023/04/21 07:13:28;;;;;;;18.37;10.17;;;14.20;1.00;;;;;;5054270;28;20185;-52
2023/04/21 07:15:54;;;;;;;17.00;10.30;;;14.40;1.00;;;;;;5054450;28;20182;-51
2023/04/21 07:18:20;;;;;;;16.30;10.73;;;14.80;1.00;;;;;;5054173;28;20176;-51
2023/04/21 07:20:45;;;;;;;20.50;10.40;;;15.20;1.00;;;;;;5054162;28;20575;-51
2023/04/21 07:23:11;;;;;;;14.83;10.13;;;15.30;1.00;;;;;;5053799;28;20277;-51
2023/04/21 07:25:36;;;;;;;13.50;10.20;;;15.30;1.00;;;;;;5053909;28;20193;-51
2023/04/21 07:28:03;;;;;;;16.93;10.17;;;15.30;1.00;;;;;;5054012;28;20200;-51
2023/04/21 07:30:29;;;;;;;14.53;10.37;;;15.40;1.00;;;;;;5053973;28;20189;-51
2023/04/21 07:32:56;;;;;;;16.83;10.03;;;15.60;1.00;;;;;;5053827;28;20945;-51
2023/04/21 07:35:22;;;;;;;16.93;10.40;;;15.90;1.00;;;;;;5052684;28;20418;-51
2023/04/21 07:37:47;;;;;;;16.13;9.93;;;16.20;1.00;;;;;;5053772;28;20421;-52
2023/04/21 07:40:13;;;;;;;13.17;10.17;;;16.30;1.00;;;;;;5053714;28;20209;-52
2023/04/21 07:42:39;;;;;;;15.00;9.93;;;16.50;1.00;;;;;;5053378;28;20191;-52
2023/04/21 07:45:05;;;;;;;13.97;10.40;;;16.80;1.00;;;;;;5053734;28;20414;-52
2023/04/21 07:47:31;;;;;;;13.30;9.70;;;16.90;1.00;;;;;;5053258;28;20316;-52
2023/04/21 07:49:57;;;;;;;15.50;10.80;;;17.00;1.00;;;;;;5053778;28;20423;-51
2023/04/21 07:52:22;;;;;;;14.70;10.13;;;17.10;1.00;;;;;;5054089;28;20412;-51
2023/04/21 07:54:48;;;;;;;16.93;9.10;;;17.20;1.00;;;;;;5052997;28;20559;-51
2023/04/21 07:57:14;;;;;;;15.67;10.30;;;17.50;1.00;;;;;;5052765;28;20221;-51
2023/04/21 07:59:40;;;;;;;14.57;9.17;;;17.90;1.00;;;;;;5052980;28;20211;-51
2023/04/21 08:02:05;;;;;;;13.47;9.37;;;18.60;1.00;;;;;;5053033;28;20221;-52
2023/04/21 08:04:31;;;;;;;13.80;10.13;;;18.80;1.00;;;;;;5052799;28;20188;-51
2023/04/21 08:06:56;;;;;;;14.27;10.30;;;18.70;1.00;;;;;;5053089;28;20179;-51
2023/04/21 08:09:22;;;;;;;16.53;10.00;;;18.60;1.00;;;;;;5052852;28;20196;-51
2023/04/21 08:11:48;;;;;;;16.67;10.33;;;18.50;1.00;;;;;;5052571;28;20188;-51
2023/04/21 08:14:14;;;;;;;14.93;8.93;;;18.20;1.00;;;;;;5052825;28;20189;-51
2023/04/21 08:16:40;;;;;;;18.40;9.23;;;18.10;1.00;;;;;;5052391;28;20187;-51
2023/04/21 08:19:06;;;;;;;12.60;8.70;;;18.30;1.00;;;;;;5052709;28;20233;-51
2023/04/21 08:21:32;;;;;;;13.50;9.30;;;18.60;1.00;;;;;;5052606;28;20935;-51
2023/04/21 08:23:58;;;;;;;14.70;9.33;;;18.80;1.00;;;;;;5052709;28;20473;-52
2023/04/21 08:26:24;;;;;;;12.30;9.13;;;19.20;1.00;;;;;;5052821;28;20211;-51
2023/04/21 08:28:51;;;;;;;12.90;9.63;;;19.30;1.00;;;;;;5052293;28;20186;-52
2023/04/21 08:31:17;;;;;;;13.10;9.40;;;19.30;1.00;;;;;;5052588;28;20432;-52
2023/04/21 08:33:43;;;;;;;15.93;9.10;;;19.40;1.00;;;;;;5052015;28;20434;-51
2023/04/21 08:36:10;;;;;;;12.70;9.07;;;19.60;1.00;;;;;;5052409;28;20416;-52
2023/04/21 08:38:41;;;;;;;10.03;8.93;;;19.80;1.00;;;;;;5051774;28;20194;-51
2023/04/21 08:41:07;;;;;;;12.17;9.83;;;19.70;1.00;;;;;;5052383;28;20464;-51
2023/04/21 08:43:32;;;;;;;20.70;10.20;;;19.90;1.00;;;;;;5052256;28;20829;-53
2023/04/21 08:45:59;;;;;;;12.67;9.93;;;20.20;1.00;;;;;;5052299;28;20499;-54
2023/04/21 08:48:26;;;;;;;15.47;9.70;;;20.00;1.00;;;;;;5052184;28;20367;-51
2023/04/21 08:50:52;;;;;;;13.50;9.50;;;20.20;1.00;;;;;;5052500;28;20474;-52
2023/04/21 08:53:18;;;;;;;11.80;8.93;;;20.40;1.00;;;;;;5051887;28;20770;-53
2023/04/21 08:55:45;;;;;;;12.87;9.40;;;20.30;1.00;;;;;;5052166;28;20267;-52
2023/04/21 08:58:12;;;;;;;16.57;9.10;;;20.50;1.00;;;;;;5052148;28;20426;-52
2023/04/21 09:00:40;;;;;;;11.10;8.47;;;20.90;1.00;;;;;;5052013;28;20479;-52
2023/04/21 09:03:07;;;;;;;13.80;9.87;;;21.10;1.00;;;;;;5051890;28;20440;-52
2023/04/21 09:05:33;;;;;;;13.80;9.43;;;21.20;1.00;;;;;;5050661;28;20805;-52
2023/04/21 09:08:13;;;;;;;14.20;9.40;;;21.40;1.00;;;;;;5052192;28;20848;-53
2023/04/21 09:10:43;;;;;;;11.37;8.73;;;21.60;1.00;;;;;;5052201;28;20928;-53
2023/04/21 09:13:09;;;;;;;12.80;9.93;;;21.50;1.00;;;;;;5051666;28;20490;-53
2023/04/21 09:15:39;;;;;;;13.83;9.10;;;21.80;1.00;;;;;;5051950;28;20499;-53
2023/04/21 09:18:20;;;;;;;14.37;9.60;;;22.10;1.00;;;;;;5051991;28;20919;-53
2023/04/21 09:20:48;;;;;;;14.60;8.57;;;22.10;1.00;;;;;;5051873;28;20483;-53
2023/04/21 09:23:13;;;;;;;15.80;10.50;;;21.80;1.00;;;;;;5051577;28;20428;-53
2023/04/21 09:25:41;;;;;;;14.00;9.23;;;22.00;1.00;;;;;;5051911;28;20424;-53
2023/04/21 09:28:08;;;;;;;14.10;9.03;;;22.00;99.90;;;;;;5051821;28;20251;-53
2023/04/21 09:30:35;;;;;;;14.10;8.93;;;21.90;99.90;;;;;;5051815;28;20535;-53
2023/04/21 09:33:01;;;;;;;14.93;9.10;;;22.00;99.90;;;;;;5051763;28;20427;-54
2023/04/21 09:35:35;;;;;;;11.27;8.67;;;22.20;99.90;;;;;;5051754;28;20511;-52
2023/04/21 09:38:02;;;;;;;15.67;9.57;;;22.20;99.90;;;;;;5051457;28;20182;-54
2023/04/21 09:40:31;;;;;;;10.43;8.47;;;22.30;99.90;;;;;;5051880;28;20460;-53
2023/04/21 09:42:57;;;;;;;11.87;9.47;;;22.40;99.90;;;;;;5051949;28;20424;-53
2023/04/21 09:45:26;;;;;;;13.57;9.70;;;22.20;99.90;;;;;;5051702;28;20565;-53
2023/04/21 09:47:55;;;;;;;13.17;9.27;;;21.80;99.90;;;;;;5051460;28;20237;-54
2023/04/21 09:50:22;;;;;;;17.10;10.13;;;21.20;99.90;;;;;;5053026;28;20522;-53
2023/04/21 09:52:50;;;;;;;14.97;9.70;;;20.90;99.90;;;;;;5055475;28;20557;-52
2023/04/21 09:55:18;;;;;;;13.13;8.93;;;20.70;99.90;;;;;;5055059;28;20797;-52
2023/04/21 09:57:47;;;;;;;12.03;9.07;;;20.60;99.90;;;;;;5055330;28;20423;-53
2023/04/21 10:00:14;;;;;;;13.40;9.50;;;20.50;99.90;;;;;;5054984;28;20468;-53
2023/04/21 10:02:46;;;;;;;9.80;8.80;;;20.60;99.90;;;;;;5055242;28;20741;-53
2023/04/21 10:05:12;;;;;;;16.87;9.20;;;20.90;99.90;;;;;;5054923;28;20469;-53
2023/04/21 10:07:38;;;;;;;14.93;9.93;;;21.40;99.90;;;;;;5055116;28;20419;-54
2023/04/21 10:10:08;;;;;;;13.47;9.70;;;21.60;99.90;;;;;;5054828;28;20268;-54
2023/04/21 10:12:34;;;;;;;12.80;8.97;;;21.80;99.90;;;;;;5055333;28;20185;-52
2023/04/21 10:15:05;;;;;;;12.20;9.10;;;21.60;99.90;;;;;;5055047;28;20412;-52
2023/04/21 10:17:35;;;;;;;15.87;9.60;;;21.80;99.90;;;;;;5054713;28;20466;-54
2023/04/21 10:20:05;;;;;;;12.30;9.73;;;22.00;99.90;;;;;;5054586;28;20461;-55
2023/04/21 10:22:33;;;;;;;10.60;9.50;;;21.80;99.90;;;;;;5054910;28;20401;-53
2023/04/21 10:25:03;;;;;;;12.97;9.27;;;21.90;99.90;;;;;;5055044;28;20427;-53
2023/04/21 10:27:34;;;;;;;12.53;9.17;;;22.10;99.90;;;;;;5055049;28;20429;-54
2023/04/21 10:30:00;;;;;;;11.40;8.87;;;22.20;99.90;;;;;;5055035;28;20460;-53
2023/04/21 10:32:44;;;;;;;13.80;9.47;;;22.60;99.90;;;;;;5054663;28;20432;-53
2023/04/21 10:35:11;;;;;;;9.73;8.73;;;23.20;1.00;;;;;;5054708;28;20423;-52
2023/04/21 10:37:39;;;;;;;10.73;8.53;;;23.70;99.90;;;;;;5054458;28;20509;-52
2023/04/21 10:40:08;;;;;;;11.93;8.57;;;24.10;99.90;;;;;;5054456;28;20515;-54
2023/04/21 10:42:35;;;;;;;10.00;8.00;;;24.10;99.90;;;;;;5054230;28;20421;-53
2023/04/21 10:45:08;;;;;;;12.07;8.07;;;24.30;99.90;;;;;;5054329;28;20498;-54
2023/04/21 10:47:43;;;;;;;12.73;8.60;;;24.80;99.90;;;;;;5054308;28;20508;-53
2023/04/21 10:50:30;;;;;;;11.43;8.60;;;25.10;99.90;;;;;;5054410;28;20432;-52
2023/04/21 10:53:10;;;;;;;13.73;8.90;;;24.60;99.90;;;;;;5054331;28;20451;-53
2023/04/21 10:55:37;;;;;;;10.00;8.47;;;24.90;99.90;;;;;;5054171;28;20434;-53
2023/04/21 10:58:05;;;;;;;14.30;8.90;;;25.40;99.90;;;;;;5054009;28;20430;-53
2023/04/21 11:00:31;;;;;;;13.43;9.47;;;25.50;99.90;;;;;;5053827;28;20466;-52
2023/04/21 11:03:02;;;;;;;9.47;7.80;;;25.00;99.90;;;;;;5054099;28;20427;-52
2023/04/21 11:05:39;;;;;;;12.87;9.07;;;24.90;99.90;;;;;;5054433;28;20416;-52
2023/04/21 11:08:05;;;;;;;9.03;8.00;;;25.30;99.90;;;;;;5053734;28;20961;-53
2023/04/21 11:10:41;;;;;;;14.40;8.80;;;25.50;99.90;;;;;;5053792;28;20418;-53
2023/04/21 11:13:07;;;;;;;11.90;8.10;;;25.60;99.90;;;;;;5054021;28;20196;-52
2023/04/21 11:15:32;;;;;;;15.13;9.50;;;25.70;99.90;;;;;;5053360;28;20932;-52
2023/04/21 11:17:58;;;;;;;10.40;8.43;;;25.10;99.90;;;;;;5053746;28;20271;-52
2023/04/21 11:20:24;;;;;;;14.50;10.07;;;24.30;99.90;;;;;;5053813;28;20228;-52
2023/04/21 11:22:54;;;;;;;11.33;8.00;;;24.20;99.90;;;;;;5053755;28;20632;-52
2023/04/21 11:25:20;;;;;;;13.63;8.63;;;24.50;99.90;;;;;;5053662;28;20254;-52
2023/04/21 11:27:54;;;;;;;13.50;9.40;;;24.70;99.90;;;;;;5053546;28;21051;-52
2023/04/21 11:30:19;;;;;;;12.30;8.70;;;24.60;99.90;;;;;;5053294;28;20192;-52
2023/04/21 11:32:45;;;;;;;12.10;9.03;;;24.50;99.90;;;;;;5053217;28;20416;-52
2023/04/21 11:35:11;;;;;;;13.00;9.60;;;24.70;99.90;;;;;;5053134;28;20201;-52
2023/04/21 11:37:36;;;;;;;11.60;8.10;;;25.20;99.90;;;;;;5053180;28;20184;-52
2023/04/21 11:40:05;;;;;;;14.80;8.40;;;25.70;99.90;;;;;;5053080;28;20220;-54
2023/04/21 11:42:30;;;;;;;11.37;8.77;;;25.90;99.90;;;;;;5053671;28;20190;-52
2023/04/21 11:44:57;;;;;;;12.80;7.90;;;26.20;99.90;;;;;;5053314;28;20924;-52
2023/04/21 11:47:26;;;;;;;10.70;7.83;;;26.10;99.90;;;;;;5053068;28;20231;-52
2023/04/21 11:49:58;;;;;;;9.53;8.10;;;26.20;99.90;;;;;;5053174;28;20439;-52
2023/04/21 11:52:28;;;;;;;18.13;7.80;;;26.20;99.90;;;;;;5052891;28;20898;-52
2023/04/21 11:55:02;;;;;;;15.30;7.80;;;26.40;99.90;;;;;;5053185;28;20417;-52
2023/04/21 11:57:30;;;;;;;14.57;7.87;;;26.40;99.90;;;;;;5052919;28;20475;-52
2023/04/21 11:59:59;;;;;;;10.77;7.30;;;26.90;99.90;;;;;;5052560;28;20469;-52
2023/04/21 12:02:28;;;;;;;10.50;7.90;;;27.30;99.90;;;;;;5052602;28;20429;-52
2023/04/21 12:05:03;;;;;;;14.87;7.83;;;27.40;99.90;;;;;;5052559;28;20953;-52
2023/04/21 12:07:38;;;;;;;12.90;7.80;;;26.90;99.90;;;;;;5052838;28;21103;-52
2023/04/21 12:10:20;;;;;;;15.60;8.43;;;26.70;99.90;;;;;;5052561;28;20449;-52
2023/04/21 12:12:46;;;;;;;14.97;8.00;;;26.60;99.90;;;;;;5051898;28;20424;-52
2023/04/21 12:15:18;;;;;;;10.60;8.37;;;26.60;99.90;;;;;;5052394;28;20413;-52
2023/04/21 12:17:46;;;;;;;9.87;8.57;;;26.30;99.90;;;;;;5052741;28;20401;-52
2023/04/21 12:20:15;;;;;;;9.23;8.23;;;26.20;99.90;;;;;;5052534;28;20465;-52
2023/04/21 12:22:40;;;;;;;10.07;8.30;;;26.30;99.90;;;;;;5052609;28;20425;-52
2023/04/21 12:25:07;;;;;;;9.37;8.00;;;26.20;99.90;;;;;;5052222;28;20472;-52
2023/04/21 12:27:33;;;;;;;12.00;8.77;;;26.00;99.90;;;;;;5052633;28;20182;-54
2023/04/21 12:29:59;;;;;;;10.00;7.33;;;26.10;99.90;;;;;;5052843;28;20424;-52
2023/04/21 12:32:25;;;;;;;11.50;8.17;;;26.10;99.90;;;;;;5050927;28;20182;-52
2023/04/21 12:34:50;;;;;;;9.00;8.07;;;26.30;99.90;;;;;;5052436;28;20182;-51
2023/04/21 12:37:17;;;;;;;8.80;7.90;;;26.20;99.90;;;;;;5052398;28;20227;-51
2023/04/21 12:39:43;;;;;;;9.80;7.97;;;26.20;99.90;;;;;;5052003;28;20739;-52